createdAt,value
2019-05-29T00:02:19.684Z,8.90
2019-05-29T00:04:48.865Z,8.90
2019-05-29T00:07:18.492Z,8.90
2019-05-29T00:09:47.683Z,8.90
2019-05-29T00:12:19.579Z,8.80
2019-05-29T00:14:47.790Z,8.80
2019-05-29T00:17:17.024Z,8.80
2019-05-29T00:19:46.215Z,8.80
2019-05-29T00:22:15.411Z,8.70
2019-05-29T00:24:44.643Z,8.70
2019-05-29T00:27:15.444Z,8.70
2019-05-29T00:29:44.701Z,8.70
2019-05-29T00:32:15.081Z,8.70
2019-05-29T00:34:44.430Z,8.70
2019-05-29T00:37:14.597Z,8.70
2019-05-29T00:39:43.947Z,8.60
2019-05-29T00:42:14.331Z,8.60
2019-05-29T00:44:44.040Z,8.60
2019-05-29T00:47:13.660Z,8.60
2019-05-29T00:49:43.314Z,8.60
2019-05-29T00:52:12.569Z,8.50
2019-05-29T00:54:41.768Z,8.50
2019-05-29T00:57:10.941Z,8.50
2019-05-29T00:59:40.111Z,8.50
2019-05-29T01:02:09.619Z,8.50
2019-05-29T01:04:38.844Z,8.40
2019-05-29T01:07:08.049Z,8.40
2019-05-29T01:09:37.272Z,8.40
2019-05-29T01:12:06.480Z,8.40
2019-05-29T01:14:49.205Z,8.40
2019-05-29T01:17:06.543Z,8.40
2019-05-29T01:19:35.883Z,8.40
2019-05-29T01:22:05.116Z,8.40
2019-05-29T01:24:34.309Z,8.40
2019-05-29T01:27:03.714Z,8.40
2019-05-29T01:29:32.999Z,8.40
2019-05-29T01:32:02.223Z,8.40
2019-05-29T01:34:31.511Z,8.30
2019-05-29T01:37:00.783Z,8.40
2019-05-29T01:39:29.979Z,8.40
2019-05-29T01:41:59.188Z,8.40
2019-05-29T01:44:28.402Z,8.40
2019-05-29T01:46:57.616Z,8.50
2019-05-29T01:49:27.938Z,8.50
2019-05-29T01:51:57.246Z,8.50
2019-05-29T01:54:26.483Z,8.50
2019-05-29T01:56:55.685Z,8.50
2019-05-29T01:59:24.942Z,8.40
2019-05-29T02:01:54.212Z,8.40
2019-05-29T02:04:24.223Z,8.40
2019-05-29T02:06:53.515Z,8.40
2019-05-29T02:09:22.732Z,8.40
2019-05-29T02:11:52.041Z,8.50
2019-05-29T02:14:22.627Z,8.40
2019-05-29T02:16:51.948Z,8.50
2019-05-29T02:19:21.894Z,8.50
2019-05-29T02:21:51.300Z,8.50
2019-05-29T02:24:21.156Z,8.50
2019-05-29T02:26:50.654Z,8.50
2019-05-29T02:29:20.808Z,8.50
2019-05-29T02:31:50.131Z,8.50
2019-05-29T02:34:19.989Z,8.60
2019-05-29T02:36:49.453Z,8.60
2019-05-29T02:39:19.336Z,8.60
2019-05-29T02:41:49.557Z,8.60
2019-05-29T02:44:19.270Z,8.60
2019-05-29T02:46:48.580Z,8.60
2019-05-29T02:49:19.740Z,8.60
2019-05-29T02:51:48.823Z,8.70
2019-05-29T02:54:18.030Z,8.70
2019-05-29T02:56:47.255Z,8.70
2019-05-29T02:59:16.531Z,8.70
2019-05-29T03:01:45.929Z,8.70
2019-05-29T03:04:15.381Z,8.70
2019-05-29T03:06:44.695Z,8.70
2019-05-29T03:09:13.965Z,8.70
2019-05-29T03:11:43.608Z,8.70
2019-05-29T03:14:12.788Z,8.70
2019-05-29T03:16:42.056Z,8.70
2019-05-29T03:19:11.292Z,8.70
2019-05-29T03:21:40.498Z,8.70
2019-05-29T03:24:09.705Z,8.70
2019-05-29T03:26:38.937Z,8.80
2019-05-29T03:29:08.132Z,8.80
2019-05-29T03:31:46.134Z,8.80
2019-05-29T03:34:08.328Z,8.90
2019-05-29T03:36:43.892Z,8.90
2019-05-29T03:39:08.682Z,8.90
2019-05-29T03:41:39.010Z,8.90
2019-05-29T03:44:10.415Z,9.00
2019-05-29T03:46:45.189Z,9.00
2019-05-29T03:49:10.328Z,9.10
2019-05-29T03:51:39.589Z,9.10
2019-05-29T03:54:08.757Z,9.10
2019-05-29T03:56:38.891Z,9.20
2019-05-29T03:59:08.287Z,9.30
2019-05-29T04:01:37.601Z,9.30
2019-05-29T04:04:07.047Z,9.40
2019-05-29T04:06:37.555Z,9.50
2019-05-29T04:09:07.477Z,9.50
2019-05-29T04:11:37.880Z,9.50
2019-05-29T04:14:07.498Z,9.60
2019-05-29T04:16:57.568Z,9.60
2019-05-29T04:19:07.983Z,9.60
2019-05-29T04:21:38.842Z,9.60
2019-05-29T04:24:08.305Z,9.60
2019-05-29T04:26:41.088Z,9.60
2019-05-29T04:29:11.592Z,9.60
2019-05-29T04:31:40.806Z,9.60
2019-05-29T04:34:10.366Z,9.60
2019-05-29T04:36:39.614Z,9.60
2019-05-29T04:39:08.785Z,9.60
2019-05-29T04:41:39.238Z,9.60
2019-05-29T04:44:08.987Z,9.70
2019-05-29T04:46:39.119Z,9.70
2019-05-29T04:49:09.926Z,9.70
2019-05-29T04:51:43.460Z,9.70
2019-05-29T04:54:15.049Z,9.80
2019-05-29T04:56:45.031Z,9.80
2019-05-29T04:59:14.748Z,9.80
2019-05-29T05:01:47.537Z,9.80
2019-05-29T05:04:16.748Z,9.90
2019-05-29T05:06:46.037Z,10.00
2019-05-29T05:09:15.300Z,10.10
2019-05-29T05:11:44.541Z,10.20
2019-05-29T05:14:13.745Z,10.20
2019-05-29T05:16:43.004Z,10.20
2019-05-29T05:19:12.224Z,10.20
2019-05-29T05:21:41.463Z,10.30
2019-05-29T05:24:10.681Z,10.30
2019-05-29T05:26:40.439Z,10.30
2019-05-29T05:29:09.748Z,10.30
2019-05-29T05:31:38.992Z,10.30
2019-05-29T05:34:08.212Z,10.40
2019-05-29T05:36:37.421Z,10.40
2019-05-29T05:39:08.052Z,10.50
2019-05-29T05:41:37.232Z,10.60
2019-05-29T05:44:06.489Z,10.70
2019-05-29T05:46:35.706Z,10.90
2019-05-29T05:49:04.920Z,11.00
2019-05-29T05:51:38.125Z,11.20
2019-05-29T05:54:04.980Z,11.30
2019-05-29T05:56:35.352Z,11.40
2019-05-29T05:59:04.920Z,11.50
2019-05-29T06:01:34.214Z,11.60
2019-05-29T06:04:03.451Z,11.60
2019-05-29T06:06:33.843Z,11.70
2019-05-29T06:09:03.452Z,11.70
2019-05-29T06:11:32.665Z,11.70
2019-05-29T06:14:01.886Z,11.70
2019-05-29T06:16:32.852Z,11.70
2019-05-29T06:19:02.155Z,11.80
2019-05-29T06:21:32.494Z,12.00
2019-05-29T06:24:01.805Z,12.10
2019-05-29T06:26:31.118Z,12.20
2019-05-29T06:29:00.528Z,12.30
2019-05-29T06:31:30.128Z,12.40
2019-05-29T06:33:59.647Z,12.40
2019-05-29T06:36:30.420Z,12.40
2019-05-29T06:38:59.626Z,12.40
2019-05-29T06:41:29.070Z,12.40
2019-05-29T06:43:58.474Z,12.40
2019-05-29T06:46:28.087Z,12.50
2019-05-29T06:49:00.639Z,12.50
2019-05-29T06:51:28.252Z,12.60
2019-05-29T06:53:57.477Z,12.60
2019-05-29T06:56:26.776Z,12.60
2019-05-29T06:58:56.013Z,12.70
2019-05-29T07:01:25.353Z,12.70
2019-05-29T07:04:10.666Z,12.70
2019-05-29T07:06:25.916Z,12.70
2019-05-29T07:08:56.198Z,12.70
2019-05-29T07:11:26.127Z,12.80
2019-05-29T07:13:55.614Z,12.90
2019-05-29T07:16:43.186Z,13.00
2019-05-29T07:19:24.095Z,13.20
2019-05-29T07:21:27.185Z,13.30
2019-05-29T07:23:56.407Z,13.50
2019-05-29T07:26:27.394Z,13.50
2019-05-29T07:29:07.368Z,13.50
2019-05-29T07:31:28.057Z,13.50
2019-05-29T07:33:57.331Z,13.40
2019-05-29T07:36:27.175Z,13.30
2019-05-29T07:39:03.374Z,13.30
2019-05-29T07:41:28.037Z,13.30
2019-05-29T07:43:57.330Z,13.30
2019-05-29T07:46:27.164Z,13.40
2019-05-29T07:48:56.703Z,13.50
2019-05-29T07:51:26.454Z,13.70
2019-05-29T07:53:55.972Z,13.80
2019-05-29T07:56:25.429Z,14.00
2019-05-29T07:59:02.684Z,14.00
2019-05-29T08:01:25.692Z,14.10
2019-05-29T08:03:54.926Z,14.10
2019-05-29T08:06:24.129Z,14.00
2019-05-29T08:08:53.384Z,14.00
2019-05-29T08:11:22.604Z,14.00
2019-05-29T08:13:51.804Z,14.00
2019-05-29T08:16:21.052Z,13.90
2019-05-29T08:18:53.066Z,13.80
2019-05-29T08:21:21.126Z,13.70
2019-05-29T08:23:50.791Z,13.60
2019-05-29T08:26:20.228Z,13.50
2019-05-29T08:28:50.913Z,13.40
2019-05-29T08:31:20.300Z,13.40
2019-05-29T08:33:49.497Z,13.40
2019-05-29T08:36:18.841Z,13.50
2019-05-29T08:38:49.076Z,13.80
2019-05-29T08:41:18.686Z,14.00
2019-05-29T08:43:48.450Z,14.30
2019-05-29T08:46:17.706Z,14.70
2019-05-29T08:48:48.080Z,15.00
2019-05-29T08:51:17.441Z,15.50
2019-05-29T08:53:46.649Z,16.10
2019-05-29T08:56:15.904Z,16.80
2019-05-29T08:58:46.228Z,17.00
2019-05-29T09:01:15.592Z,17.10
2019-05-29T09:03:44.915Z,17.00
2019-05-29T09:06:15.376Z,16.80
2019-05-29T09:08:46.225Z,16.60
2019-05-29T09:11:15.509Z,16.40
2019-05-29T09:13:44.708Z,16.10
2019-05-29T09:16:13.902Z,15.80
2019-05-29T09:18:43.152Z,15.60
2019-05-29T09:21:13.914Z,15.60
2019-05-29T09:23:43.272Z,15.70
2019-05-29T09:26:17.691Z,15.80
2019-05-29T09:28:43.412Z,15.90
2019-05-29T09:31:14.984Z,15.90
2019-05-29T09:33:44.066Z,15.90
2019-05-29T09:36:13.968Z,15.90
2019-05-29T09:38:44.175Z,15.80
2019-05-29T09:41:15.708Z,15.80
2019-05-29T09:43:58.310Z,15.80
2019-05-29T09:46:17.095Z,15.90
2019-05-29T09:48:49.654Z,15.90
2019-05-29T09:51:21.117Z,16.00
2019-05-29T09:53:49.562Z,16.00
2019-05-29T09:56:18.932Z,16.00
2019-05-29T09:58:48.307Z,15.90
2019-05-29T10:01:23.900Z,15.80
2019-05-29T10:03:48.531Z,15.60
2019-05-29T10:06:17.799Z,15.40
2019-05-29T10:08:47.053Z,15.10
2019-05-29T10:11:16.284Z,15.00
2019-05-29T10:13:45.605Z,15.10
2019-05-29T10:16:14.912Z,15.40
2019-05-29T10:18:44.169Z,15.80
2019-05-29T10:21:13.514Z,16.00
2019-05-29T10:23:42.809Z,16.20
2019-05-29T10:26:12.046Z,16.30
2019-05-29T10:28:55.366Z,16.30
2019-05-29T10:31:12.229Z,16.30
2019-05-29T10:33:42.344Z,16.50
2019-05-29T10:36:11.666Z,17.00
2019-05-29T10:38:40.892Z,17.40
2019-05-29T10:41:10.650Z,17.60
2019-05-29T10:43:39.874Z,17.70
2019-05-29T10:46:09.160Z,17.90
2019-05-29T10:48:38.445Z,18.10
2019-05-29T10:51:07.660Z,18.30
2019-05-29T10:53:36.911Z,18.50
2019-05-29T10:56:06.355Z,18.50
2019-05-29T10:58:48.619Z,18.40
2019-05-29T11:01:06.443Z,18.20
2019-05-29T11:03:35.676Z,18.10
2019-05-29T11:06:05.026Z,18.00
2019-05-29T11:08:34.201Z,17.90
2019-05-29T11:11:03.413Z,18.00
2019-05-29T11:13:32.627Z,18.30
2019-05-29T11:16:01.892Z,18.60
2019-05-29T11:18:31.099Z,18.80
2019-05-29T11:21:00.320Z,19.20
2019-05-29T11:23:29.518Z,19.40
2019-05-29T11:25:58.712Z,19.60
2019-05-29T11:28:28.015Z,19.80
2019-05-29T11:30:57.298Z,19.90
2019-05-29T11:33:26.527Z,19.80
2019-05-29T11:36:08.967Z,19.70
2019-05-29T11:38:26.763Z,19.80
2019-05-29T11:41:20.191Z,19.90
2019-05-29T11:43:27.154Z,19.90
2019-05-29T11:45:57.379Z,19.90
2019-05-29T11:48:26.670Z,19.80
2019-05-29T11:50:56.185Z,19.70
2019-05-29T11:53:25.585Z,19.50
2019-05-29T11:55:55.869Z,19.30
2019-05-29T11:58:30.970Z,19.30
2019-05-29T12:00:57.165Z,19.30
2019-05-29T12:03:26.506Z,19.50
2019-05-29T12:05:55.778Z,19.50
2019-05-29T12:08:25.527Z,19.50
2019-05-29T12:10:55.396Z,19.60
2019-05-29T12:13:24.841Z,19.70
2019-05-29T12:15:54.099Z,19.60
2019-05-29T12:18:24.677Z,19.60
2019-05-29T12:20:54.122Z,19.60
2019-05-29T12:23:26.866Z,19.50
2019-05-29T12:26:12.543Z,19.40
2019-05-29T12:28:25.272Z,19.30
2019-05-29T12:30:55.308Z,19.10
2019-05-29T12:33:25.472Z,18.80
2019-05-29T12:35:54.959Z,18.50
2019-05-29T12:38:48.532Z,18.20
2019-05-29T12:41:19.150Z,18.00
2019-05-29T12:43:48.391Z,17.80
2019-05-29T12:46:17.599Z,17.60
2019-05-29T12:48:46.842Z,17.40
2019-05-29T12:51:16.077Z,17.40
2019-05-29T12:53:45.548Z,17.40
2019-05-29T12:56:14.981Z,17.50
2019-05-29T12:58:44.591Z,17.70
2019-05-29T13:01:13.933Z,17.80
2019-05-29T13:03:45.846Z,17.80
2019-05-29T13:06:24.674Z,18.00
2019-05-29T13:12:40.097Z,18.40
2019-05-29T13:15:18.651Z,18.50
2019-05-29T13:17:47.827Z,18.70
2019-05-29T13:20:21.412Z,19.10
2019-05-29T13:22:55.516Z,19.50
2019-05-29T13:25:29.260Z,19.90
2019-05-29T13:27:59.840Z,20.20
2019-05-29T13:30:29.551Z,20.20
2019-05-29T13:33:02.816Z,20.10
2019-05-29T13:35:29.727Z,20.00
2019-05-29T13:38:08.072Z,19.70
2019-05-29T13:40:37.605Z,19.50
2019-05-29T13:43:14.469Z,19.20
2019-05-29T13:45:37.830Z,19.00
2019-05-29T13:48:07.512Z,18.90
2019-05-29T13:50:36.890Z,18.70
2019-05-29T13:53:07.450Z,18.60
2019-05-29T13:55:37.048Z,18.50
2019-05-29T13:58:06.264Z,18.40
2019-05-29T14:00:35.580Z,18.30
2019-05-29T14:03:06.949Z,18.30
2019-05-29T14:05:36.537Z,18.20
2019-05-29T14:08:07.060Z,18.00
2019-05-29T14:10:36.506Z,18.00
2019-05-29T14:13:07.266Z,17.90
2019-05-29T14:15:36.782Z,17.90
2019-05-29T14:18:07.107Z,17.90
2019-05-29T14:20:36.440Z,17.80
2019-05-29T14:23:07.355Z,17.80
2019-05-29T14:25:37.519Z,17.90
2019-05-29T14:28:06.947Z,17.90
2019-05-29T14:30:38.156Z,17.90
2019-05-29T14:33:11.318Z,17.90
2019-05-29T14:35:39.881Z,18.00
2019-05-29T14:38:14.765Z,18.20
2019-05-29T14:40:41.957Z,18.50
2019-05-29T14:43:14.920Z,18.90
2019-05-29T14:45:43.419Z,19.20
2019-05-29T14:48:14.792Z,19.40
2019-05-29T14:50:50.893Z,19.40
2019-05-29T14:53:22.098Z,19.30
2019-05-29T14:56:00.163Z,19.00
2019-05-29T14:58:31.506Z,19.10
2019-05-29T15:01:13.290Z,19.20
2019-05-29T15:03:58.980Z,19.50
2019-05-29T15:06:29.348Z,19.80
2019-05-29T15:09:07.711Z,19.90
2019-05-29T15:11:44.979Z,19.70
2019-05-29T15:14:10.206Z,19.50
2019-05-29T15:16:40.074Z,19.40
2019-05-29T15:19:17.368Z,19.50
2019-05-29T15:21:46.592Z,19.90
2019-05-29T15:24:59.703Z,20.30
2019-05-29T15:27:14.191Z,20.30
2019-05-29T15:29:43.379Z,20.50
2019-05-29T15:32:12.594Z,20.80
2019-05-29T15:34:41.816Z,21.20
2019-05-29T15:37:13.848Z,21.50
2019-05-29T15:39:41.941Z,21.70
2019-05-29T15:42:11.132Z,21.80
2019-05-29T15:44:40.380Z,21.80
2019-05-29T15:47:10.908Z,21.80
2019-05-29T15:49:40.220Z,21.70
2019-05-29T15:52:09.438Z,21.50
2019-05-29T15:54:38.657Z,21.40
2019-05-29T15:57:08.964Z,21.10
2019-05-29T15:59:38.328Z,21.00
2019-05-29T16:02:07.629Z,20.90
2019-05-29T16:04:36.842Z,20.70
2019-05-29T16:07:06.287Z,20.40
2019-05-29T16:09:35.493Z,20.10
2019-05-29T16:12:04.838Z,19.90
2019-05-29T16:14:34.185Z,19.60
2019-05-29T16:17:03.402Z,19.40
2019-05-29T16:19:32.661Z,19.20
2019-05-29T16:22:01.952Z,19.00
2019-05-29T16:24:31.194Z,18.90
2019-05-29T16:27:08.265Z,18.90
2019-05-29T16:29:31.260Z,18.80
2019-05-29T16:32:00.517Z,18.80
2019-05-29T16:34:29.773Z,18.70
2019-05-29T16:36:59.076Z,18.50
2019-05-29T16:39:28.290Z,18.30
2019-05-29T16:41:57.516Z,18.00
2019-05-29T16:44:29.459Z,17.80
2019-05-29T16:46:57.760Z,17.70
2019-05-29T16:49:27.012Z,17.60
2019-05-29T16:51:56.236Z,17.50
2019-05-29T16:54:25.436Z,17.40
2019-05-29T16:56:54.694Z,17.30
2019-05-29T16:59:24.935Z,17.20
2019-05-29T17:01:54.807Z,17.20
2019-05-29T17:04:24.072Z,17.10
2019-05-29T17:06:53.282Z,17.00
2019-05-29T17:09:24.421Z,17.00
2019-05-29T17:11:53.818Z,17.00
2019-05-29T17:14:23.054Z,16.90
2019-05-29T17:16:52.334Z,16.90
2019-05-29T17:19:23.076Z,16.80
2019-05-29T17:21:52.413Z,16.70
2019-05-29T17:24:22.887Z,16.60
2019-05-29T17:26:52.202Z,16.60
2019-05-29T17:29:21.444Z,16.50
2019-05-29T17:31:50.752Z,16.50
2019-05-29T17:34:21.057Z,16.50
2019-05-29T17:36:50.276Z,16.50
2019-05-29T17:39:20.320Z,16.50
2019-05-29T17:41:50.348Z,16.40
2019-05-29T17:44:19.653Z,16.40
2019-05-29T17:46:48.945Z,16.30
2019-05-29T17:49:20.742Z,16.30
2019-05-29T17:51:49.034Z,16.20
2019-05-29T17:54:19.528Z,16.20
2019-05-29T17:56:49.002Z,16.20
2019-05-29T17:59:18.184Z,16.10
2019-05-29T18:01:47.486Z,16.00
2019-05-29T18:04:16.715Z,16.00
2019-05-29T18:06:46.277Z,16.00
2019-05-29T18:09:17.181Z,15.90
2019-05-29T18:11:47.442Z,15.90
2019-05-29T18:14:17.353Z,15.90
2019-05-29T18:16:46.944Z,15.90
2019-05-29T18:19:17.436Z,15.90
2019-05-29T18:21:46.790Z,15.80
2019-05-29T18:24:16.088Z,15.80
2019-05-29T18:26:47.102Z,15.70
2019-05-29T18:29:16.264Z,15.70
2019-05-29T18:31:45.492Z,15.60
2019-05-29T18:34:14.740Z,15.60
2019-05-29T18:36:43.988Z,15.60
2019-05-29T18:39:15.164Z,15.50
2019-05-29T18:41:45.398Z,15.40
2019-05-29T18:44:16.539Z,15.40
2019-05-29T18:46:45.763Z,15.30
2019-05-29T18:49:15.051Z,15.30
2019-05-29T18:51:44.249Z,15.20
2019-05-29T18:54:13.480Z,15.10
2019-05-29T18:56:44.196Z,15.10
2019-05-29T18:59:14.797Z,15.00
2019-05-29T19:01:45.675Z,14.90
2019-05-29T19:04:16.735Z,14.90
2019-05-29T19:06:46.144Z,14.80
2019-05-29T19:09:15.974Z,14.70
2019-05-29T19:11:45.364Z,14.70
2019-05-29T19:14:14.565Z,14.60
2019-05-29T19:16:43.808Z,14.60
2019-05-29T19:19:13.009Z,14.50
2019-05-29T19:21:42.193Z,14.50
2019-05-29T19:24:11.416Z,14.50
2019-05-29T19:26:40.616Z,14.40
2019-05-29T19:29:09.960Z,14.40
2019-05-29T19:31:42.427Z,14.40
2019-05-29T19:34:10.068Z,14.30
2019-05-29T19:36:39.368Z,14.30
2019-05-29T19:39:09.034Z,14.20
2019-05-29T19:41:38.365Z,14.20
2019-05-29T19:44:07.584Z,14.10
2019-05-29T19:46:52.799Z,14.10
2019-05-29T19:49:07.677Z,14.10
2019-05-29T19:51:36.869Z,14.00
2019-05-29T19:54:06.065Z,13.90
2019-05-29T19:56:35.976Z,13.90
2019-05-29T19:59:05.579Z,13.90
2019-05-29T20:01:39.964Z,13.80
2019-05-29T20:04:06.702Z,13.80
2019-05-29T20:06:37.150Z,13.70
2019-05-29T20:09:07.507Z,13.70
2019-05-29T20:11:37.797Z,13.70
2019-05-29T20:14:08.136Z,13.60
2019-05-29T20:16:39.150Z,13.60
2019-05-29T20:19:08.215Z,13.60
2019-05-29T20:21:38.833Z,13.50
2019-05-29T20:24:08.339Z,13.50
2019-05-29T20:26:37.554Z,13.50
2019-05-29T20:29:06.825Z,13.40
2019-05-29T20:31:38.730Z,13.40
2019-05-29T20:34:08.652Z,13.30
2019-05-29T20:36:38.807Z,13.30
2019-05-29T20:39:08.904Z,13.20
2019-05-29T20:41:41.357Z,13.20
2019-05-29T20:44:08.982Z,13.20
2019-05-29T20:46:38.673Z,13.20
2019-05-29T20:49:08.016Z,13.10
2019-05-29T20:51:38.272Z,13.10
2019-05-29T20:54:07.536Z,13.10
2019-05-29T20:56:37.729Z,13.10
2019-05-29T20:59:07.076Z,13.10
2019-05-29T21:01:40.853Z,13.00
2019-05-29T21:04:07.228Z,13.00
2019-05-29T21:06:36.651Z,13.00
2019-05-29T21:09:06.578Z,13.00
2019-05-29T21:11:35.767Z,13.00
2019-05-29T21:14:04.988Z,13.00
2019-05-29T21:16:35.499Z,12.90
2019-05-29T21:19:04.876Z,12.90
2019-05-29T21:21:34.185Z,12.90
2019-05-29T21:24:03.400Z,12.80
2019-05-29T21:26:32.634Z,12.80
2019-05-29T21:29:01.840Z,12.80
2019-05-29T21:31:31.056Z,12.80
2019-05-29T21:34:00.288Z,12.70
2019-05-29T21:36:29.480Z,12.70
2019-05-29T21:38:58.685Z,12.60
2019-05-29T21:41:27.886Z,12.60
2019-05-29T21:43:57.231Z,12.60
2019-05-29T21:46:26.457Z,12.60
2019-05-29T21:48:55.668Z,12.50
2019-05-29T21:51:24.918Z,12.50
2019-05-29T21:53:54.094Z,12.40
2019-05-29T21:56:23.300Z,12.40
2019-05-29T21:59:02.904Z,12.40
2019-05-29T22:01:23.368Z,12.40
2019-05-29T22:03:52.592Z,12.40
2019-05-29T22:06:21.829Z,12.40
2019-05-29T22:08:51.227Z,12.30
2019-05-29T22:11:20.444Z,12.30
2019-05-29T22:13:50.300Z,12.30
2019-05-29T22:16:19.579Z,12.30
2019-05-29T22:18:48.775Z,12.30
2019-05-29T22:21:17.976Z,12.30
2019-05-29T22:23:47.221Z,12.30
2019-05-29T22:26:16.468Z,12.30
2019-05-29T22:28:45.676Z,12.30
2019-05-29T22:31:14.984Z,12.30
2019-05-29T22:33:44.213Z,12.30
2019-05-29T22:36:13.484Z,12.30
2019-05-29T22:38:42.711Z,12.30
2019-05-29T22:41:11.917Z,12.30
2019-05-29T22:43:41.144Z,12.30
2019-05-29T22:46:10.324Z,12.30
2019-05-29T22:48:39.528Z,12.30
2019-05-29T22:51:08.745Z,12.30
2019-05-29T22:53:37.978Z,12.30
2019-05-29T22:56:07.170Z,12.30
2019-05-29T22:58:36.396Z,12.30
2019-05-29T23:01:05.624Z,12.30
2019-05-29T23:03:34.813Z,12.30
2019-05-29T23:06:04.025Z,12.30
2019-05-29T23:08:33.234Z,12.30
2019-05-29T23:11:03.097Z,12.30
2019-05-29T23:13:32.389Z,12.30
2019-05-29T23:16:02.837Z,12.30
2019-05-29T23:18:32.223Z,12.30
2019-05-29T23:21:02.639Z,12.30
2019-05-29T23:23:31.947Z,12.20
2019-05-29T23:26:01.132Z,12.20
2019-05-29T23:28:30.357Z,12.20
2019-05-29T23:30:59.567Z,12.10
2019-05-29T23:33:28.778Z,12.10
2019-05-29T23:35:59.014Z,12.10
2019-05-29T23:38:28.325Z,12.10
2019-05-29T23:40:57.544Z,12.00
2019-05-29T23:43:26.741Z,12.00
2019-05-29T23:45:55.924Z,12.00
2019-05-29T23:48:25.134Z,11.90
2019-05-29T23:50:55.397Z,11.90
2019-05-29T23:53:24.744Z,11.90
2019-05-29T23:55:54.264Z,11.90
2019-05-29T23:58:23.596Z,11.90
